createdAt,value
2023-05-01T00:04:26.899Z,0.00
2023-05-01T00:14:34.731Z,0.00
2023-05-01T00:24:41.333Z,0.00
2023-05-01T00:34:48.254Z,0.00
2023-05-01T00:44:54.965Z,0.00
2023-05-01T00:55:01.631Z,0.00
2023-05-01T01:05:08.360Z,0.00
2023-05-01T01:15:15.372Z,0.00
2023-05-01T01:25:23.538Z,0.00
2023-05-01T01:35:29.893Z,0.00
2023-05-01T01:45:36.998Z,0.00
2023-05-01T01:55:43.126Z,0.00
2023-05-01T02:05:49.462Z,0.00
2023-05-01T02:15:54.924Z,0.00
2023-05-01T02:26:01.189Z,0.00
2023-05-01T02:36:07.377Z,0.00
2023-05-01T02:46:13.668Z,0.00
2023-05-01T02:56:19.455Z,0.00
2023-05-01T03:06:25.297Z,0.00
2023-05-01T03:16:31.393Z,0.00
2023-05-01T03:26:37.608Z,0.00
2023-05-01T03:36:43.733Z,0.00
2023-05-01T03:46:49.858Z,0.00
2023-05-01T03:56:56.364Z,0.00
2023-05-01T04:07:02.521Z,0.00
2023-05-01T04:17:08.643Z,4.00
2023-05-01T04:27:14.530Z,0.00
2023-05-01T04:37:21.042Z,0.00
2023-05-01T04:47:27.240Z,4.00
2023-05-01T04:57:32.855Z,0.00
2023-05-01T05:07:38.930Z,4.00
2023-05-01T05:17:45.353Z,4.00
2023-05-01T05:27:51.883Z,8.00
2023-05-01T05:37:58.245Z,16.00
2023-05-01T05:48:04.498Z,20.00
2023-05-01T05:58:10.795Z,36.00
2023-05-01T06:08:16.827Z,32.00
2023-05-01T06:18:22.827Z,40.00
2023-05-01T06:28:28.883Z,52.00
2023-05-01T06:38:30.320Z,148.00
2023-05-01T06:48:37.619Z,148.00
2023-05-01T06:58:43.867Z,140.00
2023-05-01T07:08:49.421Z,144.00
2023-05-01T07:18:56.818Z,140.00
2023-05-01T07:29:05.730Z,156.00
2023-05-01T07:39:12.142Z,120.00
2023-05-01T07:49:18.672Z,32.00
2023-05-01T07:59:25.780Z,52.00
2023-05-01T08:09:32.678Z,56.00
2023-05-01T08:19:39.322Z,32.00
2023-05-01T08:29:46.172Z,80.00
2023-05-01T08:39:53.597Z,72.00
2023-05-01T08:50:00.334Z,76.00
2023-05-01T09:00:06.961Z,88.00
2023-05-01T09:10:13.387Z,88.00
2023-05-01T09:20:19.954Z,76.00
2023-05-01T09:30:26.334Z,80.00
2023-05-01T09:40:33.171Z,68.00
2023-05-01T09:50:39.238Z,52.00
2023-05-01T10:00:45.908Z,52.00
2023-05-01T10:10:52.792Z,36.00
2023-05-01T10:20:59.604Z,56.00
2023-05-01T10:31:05.821Z,52.00
2023-05-01T10:41:12.151Z,44.00
2023-05-01T10:51:18.772Z,32.00
2023-05-01T11:01:25.496Z,28.00
2023-05-01T11:11:31.938Z,20.00
2023-05-01T11:21:38.340Z,20.00
2023-05-01T11:31:44.986Z,20.00
2023-05-01T11:41:51.446Z,16.00
2023-05-01T11:51:58.452Z,16.00
2023-05-01T12:02:04.894Z,16.00
2023-05-01T12:12:11.860Z,16.00
2023-05-01T12:22:18.587Z,12.00
2023-05-01T12:32:25.119Z,16.00
2023-05-01T12:42:31.946Z,16.00
2023-05-01T12:52:38.561Z,12.00
2023-05-01T13:02:45.495Z,12.00
2023-05-01T13:12:52.052Z,12.00
2023-05-01T13:22:58.855Z,8.00
2023-05-01T13:33:05.629Z,8.00
2023-05-01T13:43:12.417Z,12.00
2023-05-01T13:53:19.098Z,8.00
2023-05-01T14:03:26.371Z,4.00
2023-05-01T14:13:32.715Z,8.00
2023-05-01T14:23:39.214Z,8.00
2023-05-01T14:33:45.881Z,8.00
2023-05-01T14:43:52.494Z,4.00
2023-05-01T14:53:58.979Z,4.00
2023-05-01T15:04:05.243Z,0.00
2023-05-01T15:14:11.585Z,0.00
2023-05-01T15:24:18.010Z,0.00
2023-05-01T15:34:24.534Z,4.00
2023-05-01T15:44:31.099Z,4.00
2023-05-01T15:54:37.308Z,4.00
2023-05-01T16:04:43.061Z,0.00
2023-05-01T16:14:49.239Z,0.00
2023-05-01T16:24:55.708Z,4.00
2023-05-01T16:35:02.348Z,0.00
2023-05-01T16:45:08.990Z,0.00
2023-05-01T16:55:15.948Z,0.00
2023-05-01T17:05:22.547Z,0.00
2023-05-01T17:15:29.132Z,0.00
2023-05-01T17:25:35.779Z,0.00
2023-05-01T17:35:42.097Z,0.00
2023-05-01T17:45:48.336Z,0.00
2023-05-01T17:55:54.950Z,0.00
2023-05-01T18:06:01.226Z,0.00
2023-05-01T18:16:08.349Z,0.00
2023-05-01T18:26:15.604Z,0.00
2023-05-01T18:36:22.865Z,0.00
2023-05-01T18:46:30.241Z,0.00
2023-05-01T18:56:37.798Z,0.00
2023-05-01T19:06:44.952Z,0.00
2023-05-01T19:16:51.928Z,0.00
2023-05-01T19:27:00.295Z,0.00
2023-05-01T19:37:07.877Z,0.00
2023-05-01T19:47:15.174Z,0.00
2023-05-01T19:57:22.303Z,0.00
2023-05-01T20:07:29.088Z,0.00
2023-05-01T20:17:37.762Z,0.00
2023-05-01T20:27:44.919Z,0.00
2023-05-01T20:37:52.019Z,0.00
2023-05-01T20:47:59.016Z,0.00
2023-05-01T20:58:06.391Z,0.00
2023-05-01T21:08:13.513Z,0.00
2023-05-01T21:18:20.897Z,0.00
2023-05-01T21:28:27.984Z,0.00
2023-05-01T21:38:35.582Z,0.00
2023-05-01T21:48:42.848Z,0.00
2023-05-01T22:00:09.077Z,0.00
2023-05-01T22:10:17.864Z,0.00
2023-05-01T22:20:25.545Z,0.00
2023-05-01T22:30:32.982Z,0.00
2023-05-01T22:40:40.641Z,0.00
2023-05-01T22:50:47.888Z,0.00
2023-05-01T23:00:54.902Z,0.00
2023-05-01T23:11:02.169Z,0.00
2023-05-01T23:21:09.675Z,0.00
2023-05-01T23:31:16.992Z,0.00
2023-05-01T23:41:23.082Z,0.00
2023-05-01T23:51:29.084Z,0.00
